This is the latest recevied weather packets stored in our database for station/object EA5JMY-10. If no packets are shown the sender has not sent any weather packets the latest 10 day(s).
| Time | Temp. | Humidity | Pressure | Rain* | Wind** | Luminosity | Snow |
|---|---|---|---|---|---|---|---|
| 1777529141 | 22.78° C | 50% | 1017.5 hPa | - | - | - | - |
| 1777528241 | 22.78° C | 55% | 1017.4 hPa | - | - | - | - |
| 1777527341 | 19.44° C | 68% | 1017.4 hPa | - | - | - | - |
| 1777526441 | 17.78° C | 70% | 1017.2 hPa | - | - | - | - |
| 1777525541 | 17.22° C | 72% | 1017.1 hPa | - | - | - | - |
| 1777524641 | 16.67° C | 73% | 1016.8 hPa | - | - | - | - |
| 1777523740 | 16.67° C | 72% | 1016.8 hPa | - | - | - | - |
| 1777522840 | 17.22° C | 71% | 1016.7 hPa | - | - | - | - |
| 1777521940 | 17.22° C | 72% | 1016.5 hPa | - | - | - | - |
| 1777521040 | 17.78° C | 69% | 1016.7 hPa | - | - | - | - |
| 1777520140 | 17.78° C | 70% | 1016.6 hPa | - | - | - | - |
| 1777519239 | 17.22° C | 73% | 1016.6 hPa | - | - | - | - |
| 1777518339 | 17.22° C | 72% | 1016.9 hPa | - | - | - | - |
| 1777517439 | 17.78° C | 71% | 1016.7 hPa | - | - | - | - |
| 1777516538 | 17.78° C | 70% | 1016.7 hPa | - | - | - | - |
| 1777515638 | 18.33° C | 69% | 1016.6 hPa | - | - | - | - |
| 1777514738 | 18.33° C | 69% | 1016.5 hPa | - | - | - | - |
| 1777513838 | 18.33° C | 68% | 1016.6 hPa | - | - | - | - |
| 1777512938 | 18.33° C | 72% | 1016.6 hPa | - | - | - | - |
| 1777512038 | 18.33° C | 72% | 1016.7 hPa | - | - | - | - |
| 1777511138 | 18.89° C | 71% | 1016.7 hPa | - | - | - | - |
| 1777510238 | 18.89° C | 71% | 1016.6 hPa | - | - | - | - |
| 1777509338 | 18.89° C | 71% | 1016.6 hPa | - | - | - | - |
| 1777508438 | 18.89° C | 71% | 1016.8 hPa | - | - | - | - |
| 1777507537 | 19.44° C | 71% | 1016.6 hPa | - | - | - | - |
* Rain since midnight (hover to see other rain measurements)
** Current wind speed in m/s (hover to see current wind gust speed)